Time;durP1;ratioP1;P1;durP2;ratioP2;P2;SDS_P1;SDS_P2;PMS_P1;PMS_P2;Temp;Humidity;BMP_temperature;BMP_pressure;BME280_temperature;BME280_humidity;BME280_pressure;Samples;Min_cycle;Max_cycle;Signal;HPM_P1;HPM_P2
2022/11/13 00:00:21;;;;;;;0.00;0.00;;;;;;;4.45;100.00;101717.03;5030434;28;20267;-75
2022/11/13 00:02:46;;;;;;;0.90;0.90;;;;;;;4.25;100.00;101713.91;5030214;28;20197;-75
2022/11/13 00:05:11;;;;;;;0.10;0.10;;;;;;;4.22;100.00;101707.09;5030845;28;20179;-74
2022/11/13 00:07:37;;;;;;;0.10;0.10;;;;;;;4.34;100.00;101707.88;5030472;28;20172;-74
2022/11/13 00:10:02;;;;;;;0.00;0.00;;;;;;;4.25;100.00;101711.19;5030757;28;20176;-74
2022/11/13 00:12:28;;;;;;;0.00;0.00;;;;;;;4.48;100.00;101701.16;5033071;28;20204;-76
2022/11/13 00:14:53;;;;;;;0.00;0.00;;;;;;;4.41;100.00;101705.84;5034491;28;20176;-75
2022/11/13 00:17:19;;;;;;;0.00;0.00;;;;;;;4.40;100.00;101697.97;5034481;28;20207;-75
2022/11/13 00:19:44;;;;;;;0.33;0.33;;;;;;;4.48;100.00;101703.84;5034149;28;20176;-75
2022/11/13 00:22:09;;;;;;;0.10;0.10;;;;;;;4.56;100.00;101699.94;5034176;28;20210;-76
2022/11/13 00:24:34;;;;;;;0.40;0.40;;;;;;;4.51;100.00;101688.19;5033880;28;20176;-74
2022/11/13 00:27:00;;;;;;;0.23;0.23;;;;;;;4.54;100.00;101696.66;5034140;28;20172;-75
2022/11/13 00:29:25;;;;;;;0.00;0.00;;;;;;;4.65;100.00;101700.38;5033971;28;20284;-74
2022/11/13 00:31:50;;;;;;;0.80;0.80;;;;;;;4.66;100.00;101694.72;5033891;28;20214;-74
2022/11/13 00:34:16;;;;;;;0.00;0.00;;;;;;;4.53;100.00;101692.31;5015942;28;20176;-75
2022/11/13 00:36:41;;;;;;;0.10;0.10;;;;;;;4.56;100.00;101693.69;5033958;28;20229;-74
2022/11/13 00:39:06;;;;;;;0.77;0.77;;;;;;;4.44;100.00;101688.31;5033822;28;20176;-74
2022/11/13 00:41:31;;;;;;;0.00;0.00;;;;;;;4.43;100.00;101689.38;5033792;28;20587;-75
2022/11/13 00:43:57;;;;;;;1.50;1.50;;;;;;;4.50;100.00;101687.38;5033818;28;20179;-74
2022/11/13 00:46:22;;;;;;;0.10;0.10;;;;;;;4.55;100.00;101692.88;5033554;28;20180;-74
2022/11/13 00:48:47;;;;;;;0.00;0.00;;;;;;;4.40;100.00;101687.16;5033658;28;20582;-76
2022/11/13 00:51:13;;;;;;;0.00;0.00;;;;;;;4.59;100.00;101682.38;5034187;28;20175;-74
2022/11/13 00:53:38;;;;;;;0.00;0.00;;;;;;;4.65;100.00;101681.44;5033719;28;20563;-75
2022/11/13 00:56:04;;;;;;;0.00;0.00;;;;;;;4.69;100.00;101680.72;5033534;28;20176;-75
2022/11/13 00:58:29;;;;;;;0.23;0.23;;;;;;;4.69;100.00;101678.00;5015712;28;20176;-74
2022/11/13 01:00:54;;;;;;;0.00;0.00;;;;;;;4.35;100.00;101679.78;5033443;28;20210;-75
2022/11/13 01:03:19;;;;;;;0.40;0.40;;;;;;;4.51;100.00;101677.38;5032975;28;20369;-75
2022/11/13 01:05:46;;;;;;;0.00;0.00;;;;;;;4.58;100.00;101676.16;5033363;28;20555;-76
2022/11/13 01:08:13;;;;;;;0.00;0.00;;;;;;;4.40;100.00;101669.03;5033665;28;20535;-75
2022/11/13 01:10:42;;;;;;;15.63;11.47;;;;;;;4.39;100.00;101674.69;5033476;28;20262;-75
2022/11/13 01:13:07;;;;;;;0.00;0.00;;;;;;;4.20;100.00;101670.53;5033374;28;20548;-74
2022/11/13 01:15:33;;;;;;;0.00;0.00;;;;;;;4.10;100.00;101673.81;5033268;28;20226;-75
2022/11/13 01:17:58;;;;;;;0.00;0.00;;;;;;;4.03;100.00;101670.41;5033097;28;20182;-75
2022/11/13 01:20:24;;;;;;;0.00;0.00;;;;;;;3.91;100.00;101662.34;5033122;28;20175;-75
2022/11/13 01:22:50;;;;;;;0.00;0.00;;;;;;;3.84;100.00;101661.63;5031600;28;20183;-75
2022/11/13 01:25:17;;;;;;;0.00;0.00;;;;;;;4.00;100.00;101660.06;5032892;28;20184;-74
2022/11/13 01:27:42;;;;;;;0.00;0.00;;;;;;;4.16;100.00;101659.34;5032893;28;20257;-75
2022/11/13 01:30:08;;;;;;;0.00;0.00;;;;;;;4.09;100.00;101661.38;5032738;28;20207;-78
2022/11/13 01:32:33;;;;;;;0.00;0.00;;;;;;;3.72;100.00;101661.63;5032627;28;20210;-77
2022/11/13 01:34:59;;;;;;;1.00;1.00;;;;;;;3.86;100.00;101659.50;5032542;28;20244;-78
2022/11/13 01:37:24;;;;;;;0.03;0.03;;;;;;;3.81;100.00;101656.69;5032635;28;20180;-77
2022/11/13 01:39:50;;;;;;;0.00;0.00;;;;;;;3.56;100.00;101663.16;5032558;28;20302;-78
2022/11/13 01:42:15;;;;;;;0.00;0.00;;;;;;;3.83;100.00;101657.28;5032625;28;20191;-77
2022/11/13 01:44:51;;;;;;;0.00;0.00;;;;;;;3.95;100.00;101657.28;5032400;28;20172;-77
2022/11/13 01:47:18;;;;;;;0.00;0.00;;;;;;;4.01;100.00;101649.03;5032582;28;20180;-77
2022/11/13 01:49:45;;;;;;;0.10;0.10;;;;;;;4.12;100.00;101653.59;5032273;28;20258;-77
2022/11/13 01:52:25;;;;;;;0.37;0.37;;;;;;;4.20;100.00;101655.13;5014529;28;20712;-76
2022/11/13 01:54:53;;;;;;;0.00;0.00;;;;;;;4.11;100.00;101640.31;5032278;28;20189;-77
2022/11/13 01:57:19;;;;;;;0.00;0.00;;;;;;;3.46;100.00;101648.59;5032336;28;20317;-77
2022/11/13 01:59:49;;;;;;;0.57;0.57;;;;;;;3.69;100.00;101645.06;5032186;28;20275;-77
2022/11/13 02:02:14;;;;;;;0.00;0.00;;;;;;;3.76;100.00;101638.50;5031978;28;20195;-77
2022/11/13 02:04:40;;;;;;;0.00;0.00;;;;;;;3.48;100.00;101625.72;5031987;28;20176;-77
2022/11/13 02:07:24;;;;;;;1.43;1.33;;;;;;;3.65;100.00;101641.22;5032009;28;20195;-77
2022/11/13 02:09:53;;;;;;;1.43;1.43;;;;;;;3.56;100.00;101630.75;5031991;28;20168;-76
2022/11/13 02:12:31;;;;;;;0.83;0.73;;;;;;;3.45;100.00;101623.44;5031858;28;20208;-78
2022/11/13 02:14:58;;;;;;;0.73;0.73;;;;;;;3.39;100.00;101618.19;5031985;28;20623;-77
2022/11/13 02:17:32;;;;;;;0.00;0.00;;;;;;;3.46;100.00;101619.69;5032313;28;20187;-77
2022/11/13 02:20:00;;;;;;;0.10;0.10;;;;;;;3.50;100.00;101623.59;5031851;28;20186;-77
2022/11/13 02:22:42;;;;;;;0.00;0.00;;;;;;;3.49;100.00;101627.34;5031814;28;20267;-76
2022/11/13 02:25:09;;;;;;;0.00;0.00;;;;;;;3.41;100.00;101630.38;5032037;28;20187;-77
2022/11/13 02:27:43;;;;;;;1.03;1.03;;;;;;;3.38;100.00;101632.75;5031748;28;20794;-78
2022/11/13 02:30:25;;;;;;;0.00;0.00;;;;;;;3.54;100.00;101630.16;5013866;28;20182;-77
2022/11/13 02:32:52;;;;;;;0.00;0.00;;;;;;;3.75;100.00;101636.00;5031355;28;20298;-75
2022/11/13 02:35:28;;;;;;;0.00;0.00;;;;;;;3.77;100.00;101634.72;5031495;28;20322;-78
2022/11/13 02:37:56;;;;;;;0.73;0.73;;;;;;;3.84;100.00;101635.41;5031899;28;20179;-77
2022/11/13 02:40:22;;;;;;;0.00;0.00;;;;;;;3.76;100.00;101632.25;5031390;28;20661;-78
2022/11/13 02:42:47;;;;;;;0.77;0.77;;;;;;;3.67;100.00;101631.81;5031369;28;20172;-77
2022/11/13 02:45:12;;;;;;;0.00;0.00;;;;;;;3.62;100.00;101633.53;5031602;28;20188;-77
2022/11/13 02:47:38;;;;;;;0.17;0.17;;;;;;;3.20;100.00;101630.97;5031226;28;20507;-76
2022/11/13 02:50:04;;;;;;;0.00;0.00;;;;;;;3.04;100.00;101624.38;5013577;28;20188;-77
2022/11/13 02:52:30;;;;;;;0.00;0.00;;;;;;;3.29;100.00;101624.16;5031198;28;20200;-76
2022/11/13 02:54:55;;;;;;;0.20;0.20;;;;;;;3.26;100.00;101628.16;5031327;28;20180;-77
2022/11/13 02:57:20;;;;;;;0.00;0.00;;;;;;;2.78;100.00;101625.59;5031226;28;20623;-77
2022/11/13 02:59:46;;;;;;;0.00;0.00;;;;;;;2.74;100.00;101627.09;5031122;28;20184;-76
2022/11/13 03:02:11;;;;;;;0.00;0.00;;;;;;;2.91;100.00;101635.38;5030838;28;20602;-76
2022/11/13 03:04:36;;;;;;;0.00;0.00;;;;;;;2.92;100.00;101621.66;5031125;28;20187;-77
2022/11/13 03:07:02;;;;;;;0.00;0.00;;;;;;;3.01;100.00;101624.81;5031451;28;20646;-78
2022/11/13 03:09:27;;;;;;;0.00;0.00;;;;;;;3.00;100.00;101620.47;5030929;28;20172;-77
2022/11/13 03:11:52;;;;;;;0.00;0.00;;;;;;;2.75;100.00;101609.03;5030858;28;20574;-76
2022/11/13 03:14:18;;;;;;;0.00;0.00;;;;;;;2.74;100.00;101608.22;5030823;28;20183;-76
2022/11/13 03:16:43;;;;;;;0.00;0.00;;;;;;;3.02;100.00;101604.88;5030915;28;20631;-77
2022/11/13 03:19:08;;;;;;;4.83;1.60;;;;;;;3.19;100.00;101603.16;5030829;28;20175;-76
2022/11/13 03:21:34;;;;;;;0.17;0.17;;;;;;;3.16;100.00;101605.47;5031001;28;20190;-77
2022/11/13 03:23:59;;;;;;;0.00;0.00;;;;;;;2.87;100.00;101599.91;5030678;28;20180;-77
2022/11/13 03:26:27;;;;;;;0.00;0.00;;;;;;;3.06;100.00;101611.47;5030854;28;20290;-78
2022/11/13 03:28:53;;;;;;;1.27;1.23;;;;;;;3.20;100.00;101609.38;5030654;28;20175;-78
2022/11/13 03:31:18;;;;;;;1.93;1.83;;;;;;;3.24;100.00;101602.44;5030866;28;20693;-76
2022/11/13 03:33:44;;;;;;;0.00;0.00;;;;;;;3.18;100.00;101611.47;5030521;28;20235;-77
2022/11/13 03:36:09;;;;;;;0.00;0.00;;;;;;;2.82;100.00;101605.19;5030719;28;20237;-76
2022/11/13 03:38:35;;;;;;;0.00;0.00;;;;;;;2.96;100.00;101601.22;5030584;28;20263;-76
2022/11/13 03:41:00;;;;;;;0.47;0.47;;;;;;;2.99;100.00;101603.47;5030765;28;20179;-77
2022/11/13 03:43:26;;;;;;;0.00;0.00;;;;;;;3.07;100.00;101598.78;5030389;28;20288;-77
2022/11/13 03:45:51;;;;;;;0.40;0.40;;;;;;;2.70;100.00;101596.25;5030753;28;20183;-76
2022/11/13 03:48:16;;;;;;;3.33;3.13;;;;;;;2.91;100.00;101598.41;5034712;28;20183;-76
2022/11/13 03:50:45;;;;;;;0.87;0.87;;;;;;;3.13;100.00;101597.84;5034515;28;20190;-77
2022/11/13 03:53:10;;;;;;;0.00;0.00;;;;;;;3.07;100.00;101596.91;5034386;28;20214;-77
2022/11/13 03:55:36;;;;;;;0.00;0.00;;;;;;;3.00;100.00;101588.09;5034433;28;20187;-76
2022/11/13 03:58:02;;;;;;;0.00;0.00;;;;;;;2.63;100.00;101582.88;5034135;28;20635;-77
2022/11/13 04:00:27;;;;;;;0.00;0.00;;;;;;;2.58;100.00;101590.81;5034838;28;20180;-74
2022/11/13 04:02:52;;;;;;;0.00;0.00;;;;;;;2.66;100.00;101584.28;5036228;28;20247;-74
2022/11/13 04:05:18;;;;;;;0.00;0.00;;;;;;;2.76;100.00;101579.16;5036525;28;20684;-73
2022/11/13 04:07:43;;;;;;;0.00;0.00;;;;;;;2.88;100.00;101584.53;5035198;28;20172;-74
2022/11/13 04:10:08;;;;;;;0.00;0.00;;;;;;;2.92;100.00;101577.66;5034151;28;20168;-73
2022/11/13 04:12:33;;;;;;;0.00;0.00;;;;;;;3.05;100.00;101566.63;5034590;28;20196;-74
2022/11/13 04:14:59;;;;;;;0.07;0.07;;;;;;;2.56;100.00;101574.03;5016380;28;20176;-73
2022/11/13 04:17:24;;;;;;;0.10;0.10;;;;;;;2.40;100.00;101574.69;5034263;28;20176;-74
2022/11/13 04:19:49;;;;;;;0.00;0.00;;;;;;;2.46;100.00;101571.09;5034103;28;20234;-74
2022/11/13 04:22:15;;;;;;;0.40;0.40;;;;;;;2.66;100.00;101568.09;5034039;28;20171;-74
2022/11/13 04:24:40;;;;;;;0.07;0.07;;;;;;;2.65;100.00;101577.22;5033899;28;20568;-74
2022/11/13 04:27:05;;;;;;;0.00;0.00;;;;;;;2.75;100.00;101573.94;5033974;28;20259;-74
2022/11/13 04:29:30;;;;;;;0.00;0.00;;;;;;;2.80;100.00;101566.81;5033931;28;20179;-74
2022/11/13 04:31:56;;;;;;;0.00;0.00;;;;;;;2.61;100.00;101562.56;5034103;28;20237;-74
2022/11/13 04:34:21;;;;;;;0.00;0.00;;;;;;;2.59;100.00;101567.34;5033727;28;20172;-73
2022/11/13 04:36:46;;;;;;;0.00;0.00;;;;;;;2.54;100.00;101570.75;5033834;28;20260;-73
2022/11/13 04:39:12;;;;;;;0.00;0.00;;;;;;;2.72;100.00;101555.53;5033645;28;20175;-73
2022/11/13 04:44:20;;;;;;;3.70;3.60;;;;;;;2.79;100.00;101557.09;5033497;28;20597;-74
2022/11/13 04:46:46;;;;;;;0.00;0.00;;;;;;;2.99;100.00;101554.88;5033583;28;20191;-74
2022/11/13 04:49:11;;;;;;;0.00;0.00;;;;;;;2.90;100.00;101545.50;5033568;28;20183;-74
2022/11/13 04:51:36;;;;;;;0.00;0.00;;;;;;;2.79;100.00;101551.69;5033486;28;20298;-74
2022/11/13 04:54:02;;;;;;;0.00;0.00;;;;;;;2.85;100.00;101556.16;5033070;28;20223;-74
2022/11/13 04:56:27;;;;;;;0.00;0.00;;;;;;;2.94;100.00;101552.06;5033484;28;20654;-74
2022/11/13 04:58:52;;;;;;;0.00;0.00;;;;;;;2.74;100.00;101546.16;5033444;28;20287;-74
2022/11/13 05:01:17;;;;;;;0.00;0.00;;;;;;;2.81;100.00;101548.75;5033452;28;20203;-74
2022/11/13 05:03:43;;;;;;;0.87;0.87;;;;;;;2.64;100.00;101543.22;5032930;28;20183;-74
2022/11/13 05:06:09;;;;;;;0.00;0.00;;;;;;;2.59;100.00;101541.19;5033248;28;20187;-74
2022/11/13 05:08:35;;;;;;;0.00;0.00;;;;;;;2.70;100.00;101547.69;5033180;28;20646;-74
2022/11/13 05:11:02;;;;;;;0.00;0.00;;;;;;;2.66;100.00;101536.53;5033174;28;20176;-74
2022/11/13 05:13:34;;;;;;;0.00;0.00;;;;;;;2.76;100.00;101543.25;5032888;28;20536;-74
2022/11/13 05:16:04;;;;;;;0.00;0.00;;;;;;;2.34;100.00;101537.88;5033234;28;20714;-74
2022/11/13 05:18:31;;;;;;;0.00;0.00;;;;;;;2.25;100.00;101536.53;5032965;28;20176;-74
2022/11/13 05:20:56;;;;;;;0.00;0.00;;;;;;;2.47;100.00;101531.47;5033218;28;20182;-74
2022/11/13 05:23:22;;;;;;;0.00;0.00;;;;;;;2.42;100.00;101528.59;5032755;28;20184;-74
2022/11/13 05:25:47;;;;;;;0.00;0.00;;;;;;;2.01;100.00;101522.13;5033078;28;20176;-74
2022/11/13 05:28:12;;;;;;;0.10;0.10;;;;;;;1.91;100.00;101524.56;5032787;28;20592;-74
2022/11/13 05:30:38;;;;;;;1.20;1.10;;;;;;;1.72;100.00;101523.75;5032823;28;20263;-73
2022/11/13 05:33:03;;;;;;;0.20;0.20;;;;;;;1.61;100.00;101514.59;5032488;28;20242;-74
2022/11/13 05:35:29;;;;;;;0.00;0.00;;;;;;;1.70;100.00;101512.38;5033378;28;20176;-74
2022/11/13 05:37:54;;;;;;;0.00;0.00;;;;;;;1.60;100.00;101512.94;5032616;28;20686;-73
2022/11/13 05:40:19;;;;;;;0.00;0.00;;;;;;;1.74;100.00;101517.13;5032645;28;20176;-74
2022/11/13 05:42:44;;;;;;;0.37;0.37;;;;;;;1.81;100.00;101527.78;5032475;28;20226;-74
2022/11/13 05:45:10;;;;;;;0.13;0.13;;;;;;;1.76;100.00;101515.00;5032488;28;20198;-73
2022/11/13 05:47:35;;;;;;;0.17;0.17;;;;;;;1.95;100.00;101517.66;5032415;28;20180;-74
2022/11/13 05:50:00;;;;;;;0.00;0.00;;;;;;;1.70;100.00;101515.91;5032623;28;20168;-74
2022/11/13 05:52:26;;;;;;;0.10;0.10;;;;;;;1.93;100.00;101519.78;5032388;28;20203;-74
2022/11/13 05:54:51;;;;;;;0.00;0.00;;;;;;;1.85;100.00;101517.38;5032334;28;20180;-74
2022/11/13 05:57:16;;;;;;;0.10;0.10;;;;;;;1.92;100.00;101508.16;5032386;28;20186;-73
2022/11/13 05:59:41;;;;;;;0.00;0.00;;;;;;;1.77;100.00;101508.56;5032169;28;20264;-74
2022/11/13 06:02:07;;;;;;;0.00;0.00;;;;;;;1.71;100.00;101496.00;5032055;28;20186;-74
2022/11/13 06:04:32;;;;;;;0.00;0.00;;;;;;;1.87;100.00;101499.09;5031991;28;20176;-74
2022/11/13 06:06:57;;;;;;;0.00;0.00;;;;;;;2.00;100.00;101496.25;5032264;28;20176;-74
2022/11/13 06:09:23;;;;;;;0.00;0.00;;;;;;;2.14;100.00;101500.38;5031436;28;20620;-75
2022/11/13 06:11:48;;;;;;;0.10;0.10;;;;;;;2.23;100.00;101499.03;5032073;28;20196;-74
2022/11/13 06:14:13;;;;;;;0.00;0.00;;;;;;;2.35;100.00;101491.78;5031697;28;20698;-74
2022/11/13 06:16:39;;;;;;;0.00;0.00;;;;;;;2.50;100.00;101477.03;5032283;28;20180;-74
2022/11/13 06:19:07;;;;;;;0.00;0.00;;;;;;;2.53;100.00;101493.59;5031874;28;20234;-75
2022/11/13 06:21:37;;;;;;;0.00;0.00;;;;;;;2.34;100.00;101479.38;5031779;28;20613;-74
2022/11/13 06:24:03;;;;;;;0.00;0.00;;;;;;;2.24;100.00;101472.88;5031778;28;20172;-74
2022/11/13 06:26:31;;;;;;;0.00;0.00;;;;;;;2.00;100.00;101471.97;5031752;28;20227;-74
2022/11/13 06:28:57;;;;;;;0.00;0.00;;;;;;;2.14;100.00;101475.31;5031440;28;20187;-74
2022/11/13 06:31:29;;;;;;;0.00;0.00;;;;;;;2.25;100.00;101472.66;5031586;28;20179;-74
2022/11/13 06:33:56;;;;;;;0.00;0.00;;;;;;;2.00;100.00;101472.81;5031161;28;20211;-75
2022/11/13 06:36:24;;;;;;;0.00;0.00;;;;;;;1.79;100.00;101479.53;5031547;28;20195;-73
2022/11/13 06:38:50;;;;;;;0.00;0.00;;;;;;;1.98;100.00;101474.91;5031403;28;20172;-73
2022/11/13 06:41:21;;;;;;;0.00;0.00;;;;;;;1.70;100.00;101478.19;5031262;28;20175;-74
2022/11/13 06:43:47;;;;;;;0.00;0.00;;;;;;;1.55;100.00;101480.44;5031415;28;20168;-77
2022/11/13 06:46:15;;;;;;;0.67;0.67;;;;;;;1.57;100.00;101481.03;5031521;28;20190;-77
2022/11/13 06:48:40;;;;;;;0.03;0.03;;;;;;;1.47;100.00;101489.69;5032504;28;20179;-77
2022/11/13 06:51:08;;;;;;;0.00;0.00;;;;;;;1.59;100.00;101489.75;5031547;28;20597;-77
2022/11/13 06:53:34;;;;;;;0.00;0.00;;;;;;;1.71;100.00;101495.16;5031081;28;20211;-77
2022/11/13 06:56:00;;;;;;;2.93;2.83;;;;;;;1.46;100.00;101492.59;5031034;28;20168;-77
2022/11/13 06:58:26;;;;;;;0.00;0.00;;;;;;;1.54;100.00;101500.34;5031121;28;20249;-77
2022/11/13 07:00:51;;;;;;;0.00;0.00;;;;;;;1.66;100.00;101501.25;5031121;28;20168;-77
2022/11/13 07:03:21;;;;;;;0.00;0.00;;;;;;;1.69;100.00;101502.66;5030969;28;20168;-76
2022/11/13 07:05:46;;;;;;;0.07;0.07;;;;;;;2.00;100.00;101499.75;5031103;28;20184;-77
2022/11/13 07:08:12;;;;;;;0.00;0.00;;;;;;;2.06;100.00;101498.84;5031248;28;20186;-76
2022/11/13 07:10:38;;;;;;;0.00;0.00;;;;;;;2.11;100.00;101502.72;5031112;28;20168;-77
2022/11/13 07:13:04;;;;;;;0.00;0.00;;;;;;;2.07;100.00;101505.06;5030940;28;20203;-77
2022/11/13 07:15:35;;;;;;;0.40;0.40;;;;;;;2.15;100.00;101502.03;5031268;28;20168;-77
2022/11/13 07:18:01;;;;;;;0.00;0.00;;;;;;;1.81;100.00;101503.53;5030905;28;20308;-75
2022/11/13 07:20:27;;;;;;;2.77;2.53;;;;;;;1.88;100.00;101500.75;5030163;28;20203;-76
2022/11/13 07:22:57;;;;;;;0.00;0.00;;;;;;;1.83;100.00;101500.63;5030368;28;20674;-76
2022/11/13 07:25:22;;;;;;;0.00;0.00;;;;;;;1.85;100.00;101502.03;5030779;28;20397;-76
2022/11/13 07:27:48;;;;;;;0.00;0.00;;;;;;;1.86;100.00;101497.47;5030815;28;20229;-75
2022/11/13 07:30:13;;;;;;;0.10;0.10;;;;;;;1.98;100.00;101498.34;5030700;28;20172;-76
2022/11/13 07:32:38;;;;;;;0.00;0.00;;;;;;;2.10;100.00;101504.59;5030827;28;20297;-77
2022/11/13 07:35:04;;;;;;;0.43;0.43;;;;;;;2.19;100.00;101514.03;5030601;28;20171;-76
2022/11/13 07:37:29;;;;;;;0.00;0.00;;;;;;;2.34;100.00;101516.28;5030654;28;20179;-76
2022/11/13 07:39:54;;;;;;;0.00;0.00;;;;;;;2.46;100.00;101509.06;5030575;28;20171;-77
2022/11/13 07:42:20;;;;;;;0.30;0.30;;;;;;;2.48;100.00;101512.34;5030703;28;20199;-77
2022/11/13 07:44:45;;;;;;;0.10;0.10;;;;;;;2.61;100.00;101506.75;5030566;28;20183;-77
2022/11/13 07:47:10;;;;;;;0.20;0.20;;;;;;;2.75;100.00;101504.66;5030559;28;20656;-77
2022/11/13 07:49:35;;;;;;;0.00;0.00;;;;;;;2.80;100.00;101506.63;5030357;28;20190;-77
2022/11/13 07:52:01;;;;;;;4.60;2.10;;;;;;;2.89;100.00;101497.97;5030504;28;20849;-76
2022/11/13 07:54:26;;;;;;;0.00;0.00;;;;;;;2.90;100.00;101502.31;5045598;28;20468;-76
2022/11/13 07:56:51;;;;;;;0.00;0.00;;;;;;;2.91;100.00;101500.44;5030486;28;20267;-78
2022/11/13 07:59:17;;;;;;;0.20;0.20;;;;;;;2.89;100.00;101505.22;5030126;28;20176;-76
2022/11/13 08:01:42;;;;;;;1.97;0.57;;;;;;;2.78;100.00;101512.28;5029724;28;20225;-75
2022/11/13 08:04:07;;;;;;;6.37;5.73;;;;;;;2.83;100.00;101498.06;5029876;28;20210;-77
2022/11/13 08:06:35;;;;;;;0.00;0.00;;;;;;;2.86;100.00;101500.28;5030280;28;20632;-77
2022/11/13 08:09:00;;;;;;;0.00;0.00;;;;;;;2.86;100.00;101501.13;5030489;28;20176;-77
2022/11/13 08:11:26;;;;;;;0.10;0.10;;;;;;;2.86;100.00;101497.59;5030359;28;20180;-76
2022/11/13 08:13:51;;;;;;;0.00;0.00;;;;;;;2.95;100.00;101491.63;5030230;28;20611;-77
2022/11/13 08:16:17;;;;;;;2.20;2.10;;;;;;;2.99;100.00;101494.66;5030223;28;20176;-76
2022/11/13 08:18:42;;;;;;;9.63;9.00;;;;;;;3.02;100.00;101496.06;5029822;28;20537;-77
2022/11/13 08:21:07;;;;;;;0.87;0.87;;;;;;;3.04;100.00;101496.66;5029957;28;20654;-75
2022/11/13 08:23:33;;;;;;;1.10;1.10;;;;;;;3.07;100.00;101498.91;5030302;28;20176;-75
2022/11/13 08:26:03;;;;;;;0.00;0.00;;;;;;;3.11;100.00;101500.06;5030265;28;20530;-76
2022/11/13 08:28:28;;;;;;;1.17;1.17;;;;;;;3.17;100.00;101499.13;5029762;28;20647;-76
2022/11/13 08:30:53;;;;;;;1.30;1.30;;;;;;;3.18;100.00;101500.75;5029661;28;20172;-74
2022/11/13 08:33:19;;;;;;;0.00;0.00;;;;;;;3.23;100.00;101504.41;5031958;28;20211;-76
2022/11/13 08:35:52;;;;;;;0.60;0.50;;;;;;;3.37;100.00;101504.97;5033831;28;20208;-75
2022/11/13 08:38:17;;;;;;;1.03;1.03;;;;;;;3.51;100.00;101509.06;5033781;28;20172;-81
2022/11/13 08:40:43;;;;;;;0.00;0.00;;;;;;;3.66;100.00;101507.72;5033683;28;20176;-83
2022/11/13 08:43:08;;;;;;;0.20;0.10;;;;;;;3.72;100.00;101502.19;5033599;28;20176;-81
2022/11/13 08:45:33;;;;;;;0.00;0.00;;;;;;;3.76;100.00;101507.91;5033386;28;20188;-76
2022/11/13 08:48:03;;;;;;;1.30;1.20;;;;;;;3.76;100.00;101505.22;5033321;28;20513;-77
2022/11/13 08:50:30;;;;;;;0.00;0.00;;;;;;;3.85;100.00;101498.38;5033517;28;20651;-75
2022/11/13 08:52:57;;;;;;;0.77;0.77;;;;;;;3.92;100.00;101515.28;5033507;28;20207;-77
2022/11/13 08:55:22;;;;;;;1.20;1.10;;;;;;;3.93;100.00;101503.41;5033880;28;20186;-77
2022/11/13 08:57:48;;;;;;;0.87;0.87;;;;;;;3.96;100.00;101510.22;5033485;28;20180;-78
2022/11/13 09:00:13;;;;;;;0.10;0.10;;;;;;;4.01;100.00;101511.13;5033216;28;20258;-77
2022/11/13 09:02:39;;;;;;;4.80;1.13;;;;;;;4.03;100.00;101495.47;5033190;28;20186;-77
2022/11/13 09:05:04;;;;;;;0.00;0.00;;;;;;;4.05;100.00;101498.78;5015568;28;20176;-78
2022/11/13 09:07:30;;;;;;;0.83;0.83;;;;;;;4.17;100.00;101498.72;5033235;28;20175;-72
2022/11/13 09:09:55;;;;;;;0.80;0.80;;;;;;;4.22;100.00;101496.13;5033087;28;20266;-79
2022/11/13 09:12:20;;;;;;;0.23;0.23;;;;;;;4.25;100.00;101500.22;5033015;28;20598;-79
2022/11/13 09:14:46;;;;;;;0.10;0.10;;;;;;;4.28;99.79;101499.72;5033194;28;20395;-77
2022/11/13 09:17:11;;;;;;;0.60;0.60;;;;;;;4.21;100.00;101504.47;5033221;28;20176;-80
2022/11/13 09:19:36;;;;;;;2.33;2.23;;;;;;;4.31;100.00;101510.06;5032939;28;20184;-79
2022/11/13 09:22:02;;;;;;;3.47;1.90;;;;;;;4.33;100.00;101513.31;5032980;28;20198;-80
2022/11/13 09:24:27;;;;;;;0.20;0.20;;;;;;;4.39;100.00;101515.91;5032914;28;20630;-80
2022/11/13 09:26:52;;;;;;;0.00;0.00;;;;;;;4.50;100.00;101507.97;5032896;28;20527;-79
2022/11/13 09:29:18;;;;;;;0.50;0.50;;;;;;;4.60;100.00;101511.63;5033048;28;20548;-80
2022/11/13 09:31:43;;;;;;;4.43;0.87;;;;;;;4.72;100.00;101504.25;5032772;28;20180;-79
2022/11/13 09:34:08;;;;;;;0.83;0.83;;;;;;;4.83;100.00;101504.44;5032662;28;20208;-81
2022/11/13 09:36:35;;;;;;;1.03;1.03;;;;;;;4.89;100.00;101498.84;5015122;28;20180;-80
2022/11/13 09:39:00;;;;;;;4.67;4.37;;;;;;;5.13;100.00;101496.75;5032663;28;20168;-81
2022/11/13 09:41:30;;;;;;;0.00;0.00;;;;;;;5.24;100.00;101497.75;5032518;28;20176;-80
2022/11/13 09:44:01;;;;;;;0.10;0.10;;;;;;;5.37;100.00;101490.06;5031642;28;20183;-80
2022/11/13 09:46:37;;;;;;;0.73;0.73;;;;;;;5.36;100.00;101493.03;5032482;28;20192;-81
2022/11/13 09:49:16;;;;;;;0.67;0.67;;;;;;;5.64;100.00;101487.44;5032536;28;20225;-82
2022/11/13 09:51:51;;;;;;;0.70;0.70;;;;;;;5.68;100.00;101477.72;5030848;28;20180;-81
2022/11/13 09:54:18;;;;;;;2.57;2.37;;;;;;;5.69;100.00;101473.09;5014321;28;20213;-81
2022/11/13 09:57:14;;;;;;;0.57;0.57;;;;;;;5.82;100.00;101474.63;5032344;28;20180;-81
2022/11/13 09:59:53;;;;;;;0.10;0.10;;;;;;;6.01;100.00;101462.38;5032339;28;20215;-81
2022/11/13 10:02:30;;;;;;;2.23;2.13;;;;;;;6.02;100.00;101464.00;5032514;28;20176;-80
2022/11/13 10:05:24;;;;;;;1.97;1.87;;;;;;;6.01;100.00;101458.84;5032156;28;20175;-82
2022/11/13 10:08:27;;;;;;;3.03;2.83;;;;;;;6.24;100.00;101461.25;5032340;28;20222;-82
2022/11/13 10:11:32;;;;;;;3.80;1.60;;;;;;;6.18;100.00;101454.94;5032229;28;20207;-82
2022/11/13 10:14:13;;;;;;;4.13;3.83;;;;;;;6.14;100.00;101444.84;5031634;28;20553;-83
2022/11/13 10:16:42;;;;;;;7.13;6.53;;;;;;;6.07;100.00;101447.75;5032060;28;20185;-84
2022/11/13 10:19:29;;;;;;;1.47;1.37;;;;;;;6.13;100.00;101438.63;5031815;28;20179;-80
2022/11/13 10:22:02;;;;;;;5.13;4.57;;;;;;;6.15;100.00;101438.34;5031847;28;20187;-80
2022/11/13 10:24:40;;;;;;;4.10;3.80;;;;;;;6.05;100.00;101449.91;5031792;28;20214;-81
2022/11/13 10:27:13;;;;;;;1.20;1.10;;;;;;;6.07;100.00;101446.94;5031834;28;20178;-84
2022/11/13 10:29:40;;;;;;;0.80;0.80;;;;;;;5.92;100.00;101437.59;5031661;28;20184;-81
2022/11/13 10:32:15;;;;;;;2.43;2.30;;;;;;;5.81;100.00;101443.16;5031661;28;20252;-83
2022/11/13 10:34:45;;;;;;;4.40;3.37;;;;;;;5.78;100.00;101435.50;5031543;28;20195;-82
2022/11/13 10:38:02;;;;;;;2.77;2.57;;;;;;;5.76;100.00;101435.75;5031531;28;20635;-82
2022/11/13 10:40:31;;;;;;;4.87;4.57;;;;;;;5.83;100.00;101438.28;4994124;28;20240;-81
2022/11/13 10:43:25;;;;;;;3.33;3.23;;;;;;;5.60;100.00;101445.63;5023425;28;20180;-79
2022/11/13 10:46:02;;;;;;;11.87;9.23;;;;;;;5.53;100.00;101436.06;5017759;28;20215;-78
2022/11/13 10:48:30;;;;;;;6.70;5.87;;;;;;;5.63;100.00;101441.56;5030999;28;20183;-81
2022/11/13 10:51:24;;;;;;;8.03;7.17;;;;;;;5.55;100.00;101444.75;5030890;28;20176;-80
2022/11/13 10:53:50;;;;;;;7.77;6.87;;;;;;;5.51;100.00;101439.03;5030508;28;20416;-78
2022/11/13 10:56:32;;;;;;;4.40;4.00;;;;;;;5.68;100.00;101438.94;5030836;28;20198;-72
2022/11/13 10:59:10;;;;;;;5.77;5.23;;;;;;;5.70;100.00;101434.06;5031142;28;20254;-75
2022/11/13 11:01:35;;;;;;;16.47;12.30;;;;;;;5.68;100.00;101434.34;5030881;28;20229;-81
2022/11/13 11:04:26;;;;;;;3.27;2.40;;;;;;;5.66;100.00;101419.41;5030612;28;20172;-80
2022/11/13 11:06:53;;;;;;;7.20;4.97;;;;;;;5.76;100.00;101424.09;5030920;28;20623;-80
2022/11/13 11:09:18;;;;;;;6.17;5.57;;;;;;;5.78;100.00;101411.09;5031096;28;20180;-82
2022/11/13 11:12:22;;;;;;;8.00;7.33;;;;;;;5.81;100.00;101416.84;5031004;28;20226;-78
2022/11/13 11:14:57;;;;;;;2.83;2.63;;;;;;;5.93;100.00;101409.41;5030529;28;20685;-73
2022/11/13 11:17:38;;;;;;;5.17;4.67;;;;;;;6.01;100.00;101410.81;5030562;28;20176;-79
2022/11/13 11:20:20;;;;;;;14.10;10.73;;;;;;;5.95;100.00;101401.84;5012602;28;20573;-82
2022/11/13 11:23:11;;;;;;;1.90;1.77;;;;;;;5.68;100.00;101395.56;5030736;28;20773;-79
2022/11/13 11:25:59;;;;;;;10.47;8.90;;;;;;;5.74;100.00;101397.25;5030861;28;20174;-81
2022/11/13 11:28:32;;;;;;;9.33;5.83;;;;;;;5.81;100.00;101387.03;5012587;28;20253;-79
2022/11/13 11:31:36;;;;;;;5.33;4.83;;;;;;;5.81;100.00;101391.63;5030505;28;20215;-78